sensor_id;sensor_type;location;lat;lon;timestamp;temperature;humidity
18581;DHT22;9420;50.876;7.012;2022-10-16T00:00:42;15.00;99.90
18581;DHT22;9420;50.876;7.012;2022-10-16T00:03:10;15.00;99.90
18581;DHT22;9420;50.876;7.012;2022-10-16T00:05:39;15.00;99.90
18581;DHT22;9420;50.876;7.012;2022-10-16T00:08:08;15.10;99.90
18581;DHT22;9420;50.876;7.012;2022-10-16T00:10:37;15.10;99.90
18581;DHT22;9420;50.876;7.012;2022-10-16T00:13:05;15.10;99.90
18581;DHT22;9420;50.876;7.012;2022-10-16T00:15:35;15.10;99.90
18581;DHT22;9420;50.876;7.012;2022-10-16T00:18:05;15.10;99.90
18581;DHT22;9420;50.876;7.012;2022-10-16T00:20:34;15.10;99.90
18581;DHT22;9420;50.876;7.012;2022-10-16T00:23:02;15.10;99.90
18581;DHT22;9420;50.876;7.012;2022-10-16T00:25:30;15.00;99.90
18581;DHT22;9420;50.876;7.012;2022-10-16T00:27:59;15.00;99.90
18581;DHT22;9420;50.876;7.012;2022-10-16T00:30:26;15.00;99.90
18581;DHT22;9420;50.876;7.012;2022-10-16T00:32:56;15.00;99.90
18581;DHT22;9420;50.876;7.012;2022-10-16T00:35:23;14.90;99.90
18581;DHT22;9420;50.876;7.012;2022-10-16T00:37:50;14.80;99.90
18581;DHT22;9420;50.876;7.012;2022-10-16T00:40:17;14.80;99.90
18581;DHT22;9420;50.876;7.012;2022-10-16T00:42:45;14.70;99.90
18581;DHT22;9420;50.876;7.012;2022-10-16T00:45:12;14.70;99.90
18581;DHT22;9420;50.876;7.012;2022-10-16T00:47:43;14.70;99.90
18581;DHT22;9420;50.876;7.012;2022-10-16T00:50:18;14.70;99.90
18581;DHT22;9420;50.876;7.012;2022-10-16T00:52:51;14.70;99.90
18581;DHT22;9420;50.876;7.012;2022-10-16T00:55:19;14.70;99.90
18581;DHT22;9420;50.876;7.012;2022-10-16T00:57:48;14.70;99.90
18581;DHT22;9420;50.876;7.012;2022-10-16T01:00:19;14.70;99.90
18581;DHT22;9420;50.876;7.012;2022-10-16T01:02:52;14.70;99.90
18581;DHT22;9420;50.876;7.012;2022-10-16T01:05:23;14.70;99.90
18581;DHT22;9420;50.876;7.012;2022-10-16T01:07:57;14.70;99.90
18581;DHT22;9420;50.876;7.012;2022-10-16T01:10:35;14.70;99.90
18581;DHT22;9420;50.876;7.012;2022-10-16T01:13:09;14.60;99.90
18581;DHT22;9420;50.876;7.012;2022-10-16T01:15:42;14.50;99.90
18581;DHT22;9420;50.876;7.012;2022-10-16T01:18:16;14.50;99.90
18581;DHT22;9420;50.876;7.012;2022-10-16T01:20:54;14.50;99.90
18581;DHT22;9420;50.876;7.012;2022-10-16T01:23:37;14.50;99.90
18581;DHT22;9420;50.876;7.012;2022-10-16T01:26:28;14.50;99.90
18581;DHT22;9420;50.876;7.012;2022-10-16T01:29:08;14.60;99.90
18581;DHT22;9420;50.876;7.012;2022-10-16T01:31:44;14.50;99.90
18581;DHT22;9420;50.876;7.012;2022-10-16T01:34:20;14.40;99.90
18581;DHT22;9420;50.876;7.012;2022-10-16T01:36:54;14.20;99.90
18581;DHT22;9420;50.876;7.012;2022-10-16T01:39:30;14.10;99.90
18581;DHT22;9420;50.876;7.012;2022-10-16T01:42:08;13.90;99.90
18581;DHT22;9420;50.876;7.012;2022-10-16T01:44:41;13.90;99.90
18581;DHT22;9420;50.876;7.012;2022-10-16T01:47:10;13.70;99.90
18581;DHT22;9420;50.876;7.012;2022-10-16T01:49:41;13.70;99.90
18581;DHT22;9420;50.876;7.012;2022-10-16T01:52:14;13.70;99.90
18581;DHT22;9420;50.876;7.012;2022-10-16T01:54:47;13.70;99.90
18581;DHT22;9420;50.876;7.012;2022-10-16T01:57:19;13.60;99.90
18581;DHT22;9420;50.876;7.012;2022-10-16T01:59:52;13.50;99.90
18581;DHT22;9420;50.876;7.012;2022-10-16T02:02:26;13.40;99.90
18581;DHT22;9420;50.876;7.012;2022-10-16T02:05:02;13.40;99.90
18581;DHT22;9420;50.876;7.012;2022-10-16T02:07:32;13.40;99.90
18581;DHT22;9420;50.876;7.012;2022-10-16T02:09:59;13.40;99.90
18581;DHT22;9420;50.876;7.012;2022-10-16T02:12:29;13.30;99.90
18581;DHT22;9420;50.876;7.012;2022-10-16T02:15:01;13.40;99.90
18581;DHT22;9420;50.876;7.012;2022-10-16T02:17:29;13.50;99.90
18581;DHT22;9420;50.876;7.012;2022-10-16T02:19:57;13.50;99.90
18581;DHT22;9420;50.876;7.012;2022-10-16T02:22:28;13.50;99.90
18581;DHT22;9420;50.876;7.012;2022-10-16T02:25:02;13.50;99.90
18581;DHT22;9420;50.876;7.012;2022-10-16T02:27:35;13.50;99.90
18581;DHT22;9420;50.876;7.012;2022-10-16T02:30:11;13.60;99.90
18581;DHT22;9420;50.876;7.012;2022-10-16T02:32:48;13.60;99.90
18581;DHT22;9420;50.876;7.012;2022-10-16T02:35:19;13.60;99.90
18581;DHT22;9420;50.876;7.012;2022-10-16T02:37:49;13.60;99.90
18581;DHT22;9420;50.876;7.012;2022-10-16T02:40:18;13.70;99.90
18581;DHT22;9420;50.876;7.012;2022-10-16T02:42:50;13.70;99.90
18581;DHT22;9420;50.876;7.012;2022-10-16T02:45:21;13.60;99.90
18581;DHT22;9420;50.876;7.012;2022-10-16T02:47:49;13.60;99.90
18581;DHT22;9420;50.876;7.012;2022-10-16T02:50:16;13.60;99.90
18581;DHT22;9420;50.876;7.012;2022-10-16T02:52:43;13.60;99.90
18581;DHT22;9420;50.876;7.012;2022-10-16T02:55:10;13.60;99.90
18581;DHT22;9420;50.876;7.012;2022-10-16T02:57:38;13.60;99.90
18581;DHT22;9420;50.876;7.012;2022-10-16T03:00:07;13.60;99.90
18581;DHT22;9420;50.876;7.012;2022-10-16T03:02:37;13.60;99.90
18581;DHT22;9420;50.876;7.012;2022-10-16T03:05:05;13.60;99.90
18581;DHT22;9420;50.876;7.012;2022-10-16T03:07:34;13.60;99.90
18581;DHT22;9420;50.876;7.012;2022-10-16T03:10:01;13.60;99.90
18581;DHT22;9420;50.876;7.012;2022-10-16T03:12:28;13.60;99.90
18581;DHT22;9420;50.876;7.012;2022-10-16T03:14:56;13.60;99.90
18581;DHT22;9420;50.876;7.012;2022-10-16T03:17:23;13.50;99.90
18581;DHT22;9420;50.876;7.012;2022-10-16T03:19:52;13.40;99.90
18581;DHT22;9420;50.876;7.012;2022-10-16T03:22:19;13.40;99.90
18581;DHT22;9420;50.876;7.012;2022-10-16T03:24:46;13.40;99.90
18581;DHT22;9420;50.876;7.012;2022-10-16T03:27:13;13.40;99.90
18581;DHT22;9420;50.876;7.012;2022-10-16T03:29:40;13.40;99.90
18581;DHT22;9420;50.876;7.012;2022-10-16T03:32:07;13.40;99.90
18581;DHT22;9420;50.876;7.012;2022-10-16T03:34:35;13.40;99.90
18581;DHT22;9420;50.876;7.012;2022-10-16T03:37:03;13.40;99.90
18581;DHT22;9420;50.876;7.012;2022-10-16T03:39:30;13.40;99.90
18581;DHT22;9420;50.876;7.012;2022-10-16T03:41:57;13.40;99.90
18581;DHT22;9420;50.876;7.012;2022-10-16T03:44:24;13.40;99.90
18581;DHT22;9420;50.876;7.012;2022-10-16T03:46:52;13.40;99.90
18581;DHT22;9420;50.876;7.012;2022-10-16T03:49:19;13.40;99.90
18581;DHT22;9420;50.876;7.012;2022-10-16T03:51:46;13.40;99.90
18581;DHT22;9420;50.876;7.012;2022-10-16T03:54:14;13.50;99.90
18581;DHT22;9420;50.876;7.012;2022-10-16T03:56:41;13.50;99.90
18581;DHT22;9420;50.876;7.012;2022-10-16T03:59:08;13.50;99.90
18581;DHT22;9420;50.876;7.012;2022-10-16T04:01:35;13.60;99.90
18581;DHT22;9420;50.876;7.012;2022-10-16T04:04:02;13.60;99.90
18581;DHT22;9420;50.876;7.012;2022-10-16T04:06:29;13.60;99.90
18581;DHT22;9420;50.876;7.012;2022-10-16T04:08:56;13.80;99.90
18581;DHT22;9420;50.876;7.012;2022-10-16T04:11:25;13.80;99.90
18581;DHT22;9420;50.876;7.012;2022-10-16T04:13:52;13.80;99.90
18581;DHT22;9420;50.876;7.012;2022-10-16T04:16:19;13.90;99.90
18581;DHT22;9420;50.876;7.012;2022-10-16T04:18:47;14.10;99.90
18581;DHT22;9420;50.876;7.012;2022-10-16T04:21:14;14.10;99.90
18581;DHT22;9420;50.876;7.012;2022-10-16T04:23:42;14.20;99.90
18581;DHT22;9420;50.876;7.012;2022-10-16T04:26:09;14.20;99.90
18581;DHT22;9420;50.876;7.012;2022-10-16T04:28:38;14.30;99.90
18581;DHT22;9420;50.876;7.012;2022-10-16T04:31:06;14.30;99.90
18581;DHT22;9420;50.876;7.012;2022-10-16T04:33:33;14.30;99.90
18581;DHT22;9420;50.876;7.012;2022-10-16T04:36:01;14.30;99.90
18581;DHT22;9420;50.876;7.012;2022-10-16T04:38:30;14.30;99.90
18581;DHT22;9420;50.876;7.012;2022-10-16T04:40:57;14.30;99.90
18581;DHT22;9420;50.876;7.012;2022-10-16T04:43:25;14.30;99.90
18581;DHT22;9420;50.876;7.012;2022-10-16T04:45:53;14.30;99.90
18581;DHT22;9420;50.876;7.012;2022-10-16T04:48:22;14.20;99.90
18581;DHT22;9420;50.876;7.012;2022-10-16T04:50:49;14.20;99.90
18581;DHT22;9420;50.876;7.012;2022-10-16T04:53:16;14.10;99.90
18581;DHT22;9420;50.876;7.012;2022-10-16T04:55:43;14.00;99.90
18581;DHT22;9420;50.876;7.012;2022-10-16T04:58:11;13.90;99.90
18581;DHT22;9420;50.876;7.012;2022-10-16T05:00:38;13.80;99.90
18581;DHT22;9420;50.876;7.012;2022-10-16T05:03:06;13.80;99.90
18581;DHT22;9420;50.876;7.012;2022-10-16T05:05:34;13.80;99.90
18581;DHT22;9420;50.876;7.012;2022-10-16T05:08:02;13.70;99.90
18581;DHT22;9420;50.876;7.012;2022-10-16T05:10:29;13.90;99.90
18581;DHT22;9420;50.876;7.012;2022-10-16T05:12:56;13.90;99.90
18581;DHT22;9420;50.876;7.012;2022-10-16T05:15:23;14.00;99.90
18581;DHT22;9420;50.876;7.012;2022-10-16T05:17:53;14.00;99.90
18581;DHT22;9420;50.876;7.012;2022-10-16T05:20:21;14.00;99.90
18581;DHT22;9420;50.876;7.012;2022-10-16T05:22:49;13.90;99.90
18581;DHT22;9420;50.876;7.012;2022-10-16T05:25:16;13.90;99.90
18581;DHT22;9420;50.876;7.012;2022-10-16T05:27:46;13.90;99.90
18581;DHT22;9420;50.876;7.012;2022-10-16T05:30:14;14.00;99.90
18581;DHT22;9420;50.876;7.012;2022-10-16T05:32:41;14.00;99.90
18581;DHT22;9420;50.876;7.012;2022-10-16T05:35:12;14.00;99.90
18581;DHT22;9420;50.876;7.012;2022-10-16T05:37:40;14.00;99.90
18581;DHT22;9420;50.876;7.012;2022-10-16T05:40:08;14.00;99.90
18581;DHT22;9420;50.876;7.012;2022-10-16T05:42:36;14.00;99.90
18581;DHT22;9420;50.876;7.012;2022-10-16T05:45:04;13.90;99.90
18581;DHT22;9420;50.876;7.012;2022-10-16T05:47:32;13.90;99.90
18581;DHT22;9420;50.876;7.012;2022-10-16T05:49:59;13.80;99.90
18581;DHT22;9420;50.876;7.012;2022-10-16T05:52:27;13.70;99.90
18581;DHT22;9420;50.876;7.012;2022-10-16T05:54:55;13.60;99.90
18581;DHT22;9420;50.876;7.012;2022-10-16T05:57:22;13.60;99.90
18581;DHT22;9420;50.876;7.012;2022-10-16T05:59:49;13.60;99.90
18581;DHT22;9420;50.876;7.012;2022-10-16T06:02:16;13.60;99.90
18581;DHT22;9420;50.876;7.012;2022-10-16T06:04:43;13.60;99.90
18581;DHT22;9420;50.876;7.012;2022-10-16T06:07:10;13.60;99.90
18581;DHT22;9420;50.876;7.012;2022-10-16T06:09:37;13.70;99.90
18581;DHT22;9420;50.876;7.012;2022-10-16T06:12:06;13.70;99.90
18581;DHT22;9420;50.876;7.012;2022-10-16T06:14:33;13.50;99.90
18581;DHT22;9420;50.876;7.012;2022-10-16T06:17:00;13.50;99.90
18581;DHT22;9420;50.876;7.012;2022-10-16T06:19:27;13.40;99.90
18581;DHT22;9420;50.876;7.012;2022-10-16T06:21:54;13.50;99.90
18581;DHT22;9420;50.876;7.012;2022-10-16T06:24:23;13.30;99.90
18581;DHT22;9420;50.876;7.012;2022-10-16T06:26:50;13.20;99.90
18581;DHT22;9420;50.876;7.012;2022-10-16T06:29:19;13.20;99.90
18581;DHT22;9420;50.876;7.012;2022-10-16T06:31:46;13.20;99.90
18581;DHT22;9420;50.876;7.012;2022-10-16T06:34:13;13.20;99.90
18581;DHT22;9420;50.876;7.012;2022-10-16T06:36:41;13.20;99.90
18581;DHT22;9420;50.876;7.012;2022-10-16T06:39:08;13.20;99.90
18581;DHT22;9420;50.876;7.012;2022-10-16T06:41:36;13.30;99.90
18581;DHT22;9420;50.876;7.012;2022-10-16T06:44:05;13.40;99.90
18581;DHT22;9420;50.876;7.012;2022-10-16T06:46:35;13.50;99.90
18581;DHT22;9420;50.876;7.012;2022-10-16T06:49:02;13.60;99.90
18581;DHT22;9420;50.876;7.012;2022-10-16T06:51:29;13.60;99.90
18581;DHT22;9420;50.876;7.012;2022-10-16T06:53:57;13.70;99.90
18581;DHT22;9420;50.876;7.012;2022-10-16T06:56:25;13.80;99.90
18581;DHT22;9420;50.876;7.012;2022-10-16T06:58:55;13.90;99.90
18581;DHT22;9420;50.876;7.012;2022-10-16T07:01:23;14.00;99.90
18581;DHT22;9420;50.876;7.012;2022-10-16T07:03:52;14.10;99.90
18581;DHT22;9420;50.876;7.012;2022-10-16T07:06:21;14.30;99.90
18581;DHT22;9420;50.876;7.012;2022-10-16T07:08:49;14.30;99.90
18581;DHT22;9420;50.876;7.012;2022-10-16T07:11:18;14.40;99.90
18581;DHT22;9420;50.876;7.012;2022-10-16T07:13:49;14.40;99.90
18581;DHT22;9420;50.876;7.012;2022-10-16T07:16:18;14.50;99.90
18581;DHT22;9420;50.876;7.012;2022-10-16T07:18:47;14.50;99.90
18581;DHT22;9420;50.876;7.012;2022-10-16T07:21:17;14.50;99.90
18581;DHT22;9420;50.876;7.012;2022-10-16T07:23:49;14.60;99.90
18581;DHT22;9420;50.876;7.012;2022-10-16T07:26:17;14.60;99.90
18581;DHT22;9420;50.876;7.012;2022-10-16T07:28:44;14.70;99.90
18581;DHT22;9420;50.876;7.012;2022-10-16T07:31:15;14.70;99.90
18581;DHT22;9420;50.876;7.012;2022-10-16T07:33:45;14.80;99.90
18581;DHT22;9420;50.876;7.012;2022-10-16T07:36:16;14.80;99.90
18581;DHT22;9420;50.876;7.012;2022-10-16T07:38:45;14.80;99.90
18581;DHT22;9420;50.876;7.012;2022-10-16T07:41:14;14.80;99.90
18581;DHT22;9420;50.876;7.012;2022-10-16T07:43:47;14.90;99.90
18581;DHT22;9420;50.876;7.012;2022-10-16T07:46:18;15.00;99.90
18581;DHT22;9420;50.876;7.012;2022-10-16T07:48:46;14.90;99.90
18581;DHT22;9420;50.876;7.012;2022-10-16T07:51:16;14.90;99.90
18581;DHT22;9420;50.876;7.012;2022-10-16T07:53:45;14.90;99.90
18581;DHT22;9420;50.876;7.012;2022-10-16T07:56:12;14.90;99.90
18581;DHT22;9420;50.876;7.012;2022-10-16T07:58:40;14.90;99.90
18581;DHT22;9420;50.876;7.012;2022-10-16T08:01:09;14.80;99.90
18581;DHT22;9420;50.876;7.012;2022-10-16T08:03:37;14.80;99.90
18581;DHT22;9420;50.876;7.012;2022-10-16T08:06:05;14.80;99.90
18581;DHT22;9420;50.876;7.012;2022-10-16T08:08:33;14.80;99.90
18581;DHT22;9420;50.876;7.012;2022-10-16T08:11:00;14.70;99.90
18581;DHT22;9420;50.876;7.012;2022-10-16T08:13:29;14.70;99.90
18581;DHT22;9420;50.876;7.012;2022-10-16T08:15:56;14.70;99.90
18581;DHT22;9420;50.876;7.012;2022-10-16T08:18:23;14.70;99.90
18581;DHT22;9420;50.876;7.012;2022-10-16T08:20:55;14.80;99.90
18581;DHT22;9420;50.876;7.012;2022-10-16T08:23:23;14.90;99.90
18581;DHT22;9420;50.876;7.012;2022-10-16T08:25:53;15.00;99.90
18581;DHT22;9420;50.876;7.012;2022-10-16T08:28:21;15.00;99.90
18581;DHT22;9420;50.876;7.012;2022-10-16T08:30:49;15.20;99.90
18581;DHT22;9420;50.876;7.012;2022-10-16T08:33:16;15.40;99.90
18581;DHT22;9420;50.876;7.012;2022-10-16T08:35:49;15.60;99.90
18581;DHT22;9420;50.876;7.012;2022-10-16T08:38:18;15.80;99.90
18581;DHT22;9420;50.876;7.012;2022-10-16T08:40:45;15.90;99.90
18581;DHT22;9420;50.876;7.012;2022-10-16T08:43:35;16.00;99.90
18581;DHT22;9420;50.876;7.012;2022-10-16T08:46:35;16.00;99.90
18581;DHT22;9420;50.876;7.012;2022-10-16T08:49:12;16.10;99.90
18581;DHT22;9420;50.876;7.012;2022-10-16T08:51:40;16.20;99.90
18581;DHT22;9420;50.876;7.012;2022-10-16T08:54:21;16.30;99.90
18581;DHT22;9420;50.876;7.012;2022-10-16T08:56:54;16.40;99.90
18581;DHT22;9420;50.876;7.012;2022-10-16T08:59:23;16.40;99.90
18581;DHT22;9420;50.876;7.012;2022-10-16T09:01:51;16.60;99.90
18581;DHT22;9420;50.876;7.012;2022-10-16T09:04:42;16.70;99.90
18581;DHT22;9420;50.876;7.012;2022-10-16T09:07:24;16.70;99.90
18581;DHT22;9420;50.876;7.012;2022-10-16T09:10:19;16.70;99.90
18581;DHT22;9420;50.876;7.012;2022-10-16T09:13:03;16.70;99.90
18581;DHT22;9420;50.876;7.012;2022-10-16T09:15:51;16.70;99.90
18581;DHT22;9420;50.876;7.012;2022-10-16T09:18:29;16.80;99.90
18581;DHT22;9420;50.876;7.012;2022-10-16T09:21:09;16.90;99.90
18581;DHT22;9420;50.876;7.012;2022-10-16T09:23:42;17.00;99.90
18581;DHT22;9420;50.876;7.012;2022-10-16T09:26:11;17.00;99.90
18581;DHT22;9420;50.876;7.012;2022-10-16T09:28:40;17.10;99.90
18581;DHT22;9420;50.876;7.012;2022-10-16T09:31:15;17.20;99.90
18581;DHT22;9420;50.876;7.012;2022-10-16T09:33:47;17.20;99.90
18581;DHT22;9420;50.876;7.012;2022-10-16T09:36:20;17.40;99.90
18581;DHT22;9420;50.876;7.012;2022-10-16T09:38:48;17.40;99.90
18581;DHT22;9420;50.876;7.012;2022-10-16T09:41:18;17.50;99.90
18581;DHT22;9420;50.876;7.012;2022-10-16T09:43:48;17.50;99.90
18581;DHT22;9420;50.876;7.012;2022-10-16T09:46:27;17.60;99.90
18581;DHT22;9420;50.876;7.012;2022-10-16T09:48:57;17.60;99.90
18581;DHT22;9420;50.876;7.012;2022-10-16T09:51:27;17.70;99.90
18581;DHT22;9420;50.876;7.012;2022-10-16T09:53:59;17.80;99.90
18581;DHT22;9420;50.876;7.012;2022-10-16T09:56:28;17.80;99.90
18581;DHT22;9420;50.876;7.012;2022-10-16T09:59:01;17.80;99.90
18581;DHT22;9420;50.876;7.012;2022-10-16T10:01:36;17.80;99.90
18581;DHT22;9420;50.876;7.012;2022-10-16T10:04:06;17.90;99.90
18581;DHT22;9420;50.876;7.012;2022-10-16T10:06:35;17.90;99.90
18581;DHT22;9420;50.876;7.012;2022-10-16T10:09:06;17.90;99.90
18581;DHT22;9420;50.876;7.012;2022-10-16T10:11:47;17.80;99.90
18581;DHT22;9420;50.876;7.012;2022-10-16T10:14:24;18.00;99.90
18581;DHT22;9420;50.876;7.012;2022-10-16T10:17:12;18.20;99.90
18581;DHT22;9420;50.876;7.012;2022-10-16T10:19:47;18.10;99.90
18581;DHT22;9420;50.876;7.012;2022-10-16T10:22:32;18.20;99.90
18581;DHT22;9420;50.876;7.012;2022-10-16T10:25:41;18.20;99.90
18581;DHT22;9420;50.876;7.012;2022-10-16T10:28:32;18.20;99.90
18581;DHT22;9420;50.876;7.012;2022-10-16T10:31:13;18.30;99.90
18581;DHT22;9420;50.876;7.012;2022-10-16T10:33:54;18.40;99.90
18581;DHT22;9420;50.876;7.012;2022-10-16T10:36:33;18.60;99.90
18581;DHT22;9420;50.876;7.012;2022-10-16T10:39:07;18.70;99.90
18581;DHT22;9420;50.876;7.012;2022-10-16T10:42:00;18.80;99.90
18581;DHT22;9420;50.876;7.012;2022-10-16T10:44:56;18.90;99.90
18581;DHT22;9420;50.876;7.012;2022-10-16T10:47:41;19.10;99.90
18581;DHT22;9420;50.876;7.012;2022-10-16T10:50:24;19.30;99.90
18581;DHT22;9420;50.876;7.012;2022-10-16T10:53:00;19.70;99.90
18581;DHT22;9420;50.876;7.012;2022-10-16T10:55:39;19.70;99.90
18581;DHT22;9420;50.876;7.012;2022-10-16T10:58:31;19.80;99.90
18581;DHT22;9420;50.876;7.012;2022-10-16T11:01:28;19.80;99.90
18581;DHT22;9420;50.876;7.012;2022-10-16T11:04:17;19.90;99.90
18581;DHT22;9420;50.876;7.012;2022-10-16T11:07:03;20.00;99.90
18581;DHT22;9420;50.876;7.012;2022-10-16T11:09:36;20.40;99.90
18581;DHT22;9420;50.876;7.012;2022-10-16T11:12:11;20.70;99.90
18581;DHT22;9420;50.876;7.012;2022-10-16T11:14:48;21.20;99.90
18581;DHT22;9420;50.876;7.012;2022-10-16T11:17:22;21.50;99.90
18581;DHT22;9420;50.876;7.012;2022-10-16T11:19:55;21.80;99.90
18581;DHT22;9420;50.876;7.012;2022-10-16T11:22:34;22.80;99.90
18581;DHT22;9420;50.876;7.012;2022-10-16T11:25:11;22.90;99.90
18581;DHT22;9420;50.876;7.012;2022-10-16T11:27:44;22.10;99.90
18581;DHT22;9420;50.876;7.012;2022-10-16T11:30:18;21.90;99.90
18581;DHT22;9420;50.876;7.012;2022-10-16T11:32:59;22.00;99.90
18581;DHT22;9420;50.876;7.012;2022-10-16T11:35:38;22.80;99.90
18581;DHT22;9420;50.876;7.012;2022-10-16T11:38:16;23.90;99.90
18581;DHT22;9420;50.876;7.012;2022-10-16T11:40:54;24.60;99.90
18581;DHT22;9420;50.876;7.012;2022-10-16T11:43:28;24.70;99.90
18581;DHT22;9420;50.876;7.012;2022-10-16T11:46:04;25.10;99.90
18581;DHT22;9420;50.876;7.012;2022-10-16T11:48:41;25.10;99.90
18581;DHT22;9420;50.876;7.012;2022-10-16T11:51:19;25.30;99.90
18581;DHT22;9420;50.876;7.012;2022-10-16T11:54:04;25.30;99.90
18581;DHT22;9420;50.876;7.012;2022-10-16T11:56:39;25.30;99.90
18581;DHT22;9420;50.876;7.012;2022-10-16T11:59:17;25.30;99.90
18581;DHT22;9420;50.876;7.012;2022-10-16T12:01:54;24.60;99.90
18581;DHT22;9420;50.876;7.012;2022-10-16T12:04:46;23.50;99.90
18581;DHT22;9420;50.876;7.012;2022-10-16T12:07:21;22.70;99.90
18581;DHT22;9420;50.876;7.012;2022-10-16T12:09:53;22.00;99.90
18581;DHT22;9420;50.876;7.012;2022-10-16T12:12:26;21.80;99.90
18581;DHT22;9420;50.876;7.012;2022-10-16T12:15:19;21.70;99.90
18581;DHT22;9420;50.876;7.012;2022-10-16T12:17:48;21.40;99.90
18581;DHT22;9420;50.876;7.012;2022-10-16T12:20:26;21.10;99.90
18581;DHT22;9420;50.876;7.012;2022-10-16T12:22:58;21.00;99.90
18581;DHT22;9420;50.876;7.012;2022-10-16T12:25:31;21.20;99.90
18581;DHT22;9420;50.876;7.012;2022-10-16T12:28:04;21.30;99.90
18581;DHT22;9420;50.876;7.012;2022-10-16T12:30:35;21.80;99.90
18581;DHT22;9420;50.876;7.012;2022-10-16T12:33:04;22.30;99.90
18581;DHT22;9420;50.876;7.012;2022-10-16T12:35:44;22.50;99.90
18581;DHT22;9420;50.876;7.012;2022-10-16T12:38:17;22.60;99.90
18581;DHT22;9420;50.876;7.012;2022-10-16T12:40:56;22.50;99.90
18581;DHT22;9420;50.876;7.012;2022-10-16T12:43:37;22.00;99.90
18581;DHT22;9420;50.876;7.012;2022-10-16T12:46:36;21.50;99.90
18581;DHT22;9420;50.876;7.012;2022-10-16T12:49:22;21.50;99.90
18581;DHT22;9420;50.876;7.012;2022-10-16T12:51:56;21.60;99.90
18581;DHT22;9420;50.876;7.012;2022-10-16T12:54:28;21.60;99.90
18581;DHT22;9420;50.876;7.012;2022-10-16T12:57:12;21.60;99.90
18581;DHT22;9420;50.876;7.012;2022-10-16T13:00:02;21.70;99.90
18581;DHT22;9420;50.876;7.012;2022-10-16T13:06:05;21.70;99.90
18581;DHT22;9420;50.876;7.012;2022-10-16T13:09:02;21.80;99.90
18581;DHT22;9420;50.876;7.012;2022-10-16T13:11:52;21.70;99.90
18581;DHT22;9420;50.876;7.012;2022-10-16T13:15:01;21.70;99.90
18581;DHT22;9420;50.876;7.012;2022-10-16T13:17:45;21.70;99.90
18581;DHT22;9420;50.876;7.012;2022-10-16T13:20:26;21.60;99.90
18581;DHT22;9420;50.876;7.012;2022-10-16T13:23:09;21.40;99.90
18581;DHT22;9420;50.876;7.012;2022-10-16T13:25:50;21.10;99.90
18581;DHT22;9420;50.876;7.012;2022-10-16T13:28:30;21.00;99.90
18581;DHT22;9420;50.876;7.012;2022-10-16T13:31:01;21.00;99.90
18581;DHT22;9420;50.876;7.012;2022-10-16T13:33:32;21.00;99.90
18581;DHT22;9420;50.876;7.012;2022-10-16T13:36:03;21.00;99.90
18581;DHT22;9420;50.876;7.012;2022-10-16T13:38:32;21.10;99.90
18581;DHT22;9420;50.876;7.012;2022-10-16T13:41:03;21.10;99.90
18581;DHT22;9420;50.876;7.012;2022-10-16T13:43:34;20.90;99.90
18581;DHT22;9420;50.876;7.012;2022-10-16T13:46:06;20.80;99.90
18581;DHT22;9420;50.876;7.012;2022-10-16T13:48:38;20.70;99.90
18581;DHT22;9420;50.876;7.012;2022-10-16T13:51:12;20.60;99.90
18581;DHT22;9420;50.876;7.012;2022-10-16T13:53:41;20.60;99.90
18581;DHT22;9420;50.876;7.012;2022-10-16T13:56:11;20.80;99.90
18581;DHT22;9420;50.876;7.012;2022-10-16T13:58:40;21.40;99.90
18581;DHT22;9420;50.876;7.012;2022-10-16T14:01:16;21.90;99.90
18581;DHT22;9420;50.876;7.012;2022-10-16T14:03:47;22.10;99.90
18581;DHT22;9420;50.876;7.012;2022-10-16T14:06:17;22.20;99.90
18581;DHT22;9420;50.876;7.012;2022-10-16T14:08:50;22.20;99.90
18581;DHT22;9420;50.876;7.012;2022-10-16T14:11:24;21.90;99.90
18581;DHT22;9420;50.876;7.012;2022-10-16T14:13:52;21.80;99.90
18581;DHT22;9420;50.876;7.012;2022-10-16T14:16:26;21.70;99.90
18581;DHT22;9420;50.876;7.012;2022-10-16T14:19:36;21.70;99.90
18581;DHT22;9420;50.876;7.012;2022-10-16T14:22:24;21.80;99.90
18581;DHT22;9420;50.876;7.012;2022-10-16T14:24:59;21.90;99.90
18581;DHT22;9420;50.876;7.012;2022-10-16T14:27:33;21.80;99.90
18581;DHT22;9420;50.876;7.012;2022-10-16T14:30:16;21.80;99.90
18581;DHT22;9420;50.876;7.012;2022-10-16T14:32:56;21.70;99.90
18581;DHT22;9420;50.876;7.012;2022-10-16T14:35:29;21.60;99.90
18581;DHT22;9420;50.876;7.012;2022-10-16T14:37:59;21.60;99.90
18581;DHT22;9420;50.876;7.012;2022-10-16T14:40:29;21.70;99.90
18581;DHT22;9420;50.876;7.012;2022-10-16T14:42:59;21.80;99.90
18581;DHT22;9420;50.876;7.012;2022-10-16T14:45:29;23.00;99.90
18581;DHT22;9420;50.876;7.012;2022-10-16T14:48:04;24.00;99.90
18581;DHT22;9420;50.876;7.012;2022-10-16T14:50:41;23.60;99.90
18581;DHT22;9420;50.876;7.012;2022-10-16T14:53:11;23.00;99.90
18581;DHT22;9420;50.876;7.012;2022-10-16T14:55:39;22.50;99.90
18581;DHT22;9420;50.876;7.012;2022-10-16T14:58:10;22.00;99.90
18581;DHT22;9420;50.876;7.012;2022-10-16T15:00:42;21.50;99.90
18581;DHT22;9420;50.876;7.012;2022-10-16T15:03:10;20.90;99.90
18581;DHT22;9420;50.876;7.012;2022-10-16T15:05:38;20.70;99.90
18581;DHT22;9420;50.876;7.012;2022-10-16T15:08:05;20.50;99.90
18581;DHT22;9420;50.876;7.012;2022-10-16T15:10:38;20.40;99.90
18581;DHT22;9420;50.876;7.012;2022-10-16T15:13:11;20.30;99.90
18581;DHT22;9420;50.876;7.012;2022-10-16T15:15:42;20.10;99.90
18581;DHT22;9420;50.876;7.012;2022-10-16T15:18:11;19.90;99.90
18581;DHT22;9420;50.876;7.012;2022-10-16T15:20:40;19.80;99.90
18581;DHT22;9420;50.876;7.012;2022-10-16T15:23:13;19.70;99.90
18581;DHT22;9420;50.876;7.012;2022-10-16T15:25:43;19.50;99.90
18581;DHT22;9420;50.876;7.012;2022-10-16T15:28:12;19.50;99.90
18581;DHT22;9420;50.876;7.012;2022-10-16T15:30:40;19.50;99.90
18581;DHT22;9420;50.876;7.012;2022-10-16T15:33:14;19.40;99.90
18581;DHT22;9420;50.876;7.012;2022-10-16T15:35:42;19.30;99.90
18581;DHT22;9420;50.876;7.012;2022-10-16T15:38:13;19.20;99.90
18581;DHT22;9420;50.876;7.012;2022-10-16T15:40:41;19.20;99.90
18581;DHT22;9420;50.876;7.012;2022-10-16T15:43:08;19.10;99.90
18581;DHT22;9420;50.876;7.012;2022-10-16T15:45:37;19.10;99.90
18581;DHT22;9420;50.876;7.012;2022-10-16T15:48:05;19.20;99.90
18581;DHT22;9420;50.876;7.012;2022-10-16T15:50:34;19.10;99.90
18581;DHT22;9420;50.876;7.012;2022-10-16T15:53:04;19.10;99.90
18581;DHT22;9420;50.876;7.012;2022-10-16T15:55:31;19.10;99.90
18581;DHT22;9420;50.876;7.012;2022-10-16T15:57:58;19.00;99.90
18581;DHT22;9420;50.876;7.012;2022-10-16T16:00:25;18.90;99.90
18581;DHT22;9420;50.876;7.012;2022-10-16T16:02:53;18.90;99.90
18581;DHT22;9420;50.876;7.012;2022-10-16T16:05:21;18.80;99.90
18581;DHT22;9420;50.876;7.012;2022-10-16T16:07:50;18.70;99.90
18581;DHT22;9420;50.876;7.012;2022-10-16T16:10:18;18.60;99.90
18581;DHT22;9420;50.876;7.012;2022-10-16T16:12:47;18.50;99.90
18581;DHT22;9420;50.876;7.012;2022-10-16T16:15:18;18.40;99.90
18581;DHT22;9420;50.876;7.012;2022-10-16T16:17:46;18.40;99.90
18581;DHT22;9420;50.876;7.012;2022-10-16T16:20:14;18.30;99.90